17 sierpnia 2022

Czas Kod Pogoda Temp. Widoczność Sufit Wiatr METAR/SPECI
08:50
V
21 °C 10 km+ - 130° 130° 3 kt METAR EDLV 170650Z 13003KT 080V170 CAVOK 21/16 Q1009
08:20
V
20 °C 10 km+ - Var Var 3 kt METAR EDLV 170620Z VRB03KT 9999 -RA FEW043 20/16 Q1009
07:50
V
21 °C 10 km+ - 170° 170° 3 kt METAR EDLV 170550Z 17003KT 120V220 CAVOK 21/16 Q1009
07:20
V
21 °C 10 km+ - Var Var 2 kt METAR EDLV 170520Z VRB02KT CAVOK 21/16 Q1009
06:50
V
21 °C 10 km+ - Var Var 2 kt METAR EDLV 170450Z VRB02KT CAVOK 21/16 Q1009
06:20
V
21 °C 10 km+ - 080° 080° 3 kt METAR EDLV 170420Z 08003KT 020V130 CAVOK 21/16 Q1009
05:50
V
21 °C 10 km+ - 080° 080° 3 kt METAR EDLV 170350Z 08003KT 040V160 CAVOK 21/16 Q1008
05:20
V
21 °C 10 km+ - Var Var 2 kt METAR EDLV 170320Z VRB02KT CAVOK 21/16 Q1008
04:50
V
21 °C 10 km+ 22.000 ft 060° 060° 3 kt METAR EDLV 170250Z AUTO 06003KT 020V100 9999 // SCT095/// BKN220/// 21/17 Q1009
04:20
V
21 °C 10 km+ - 050° 050° 3 kt METAR EDLV 170220Z AUTO 05003KT 020V090 9999 // NCD 21/17 Q1009
03:50
V
22 °C 10 km+ - Var Var 2 kt METAR EDLV 170150Z AUTO VRB02KT 9999 // FEW120/// 22/17 Q1009
03:20
V
22 °C 10 km+ 12.000 ft Var Var 2 kt METAR EDLV 170120Z AUTO VRB02KT 9999 // FEW100/// BKN120/// 22/17 Q1009
02:50
V
22 °C 10 km+ - Var Var 2 kt METAR EDLV 170050Z AUTO VRB02KT 9999 // SCT100/// 22/17 Q1009
02:20
V
22 °C 10 km+ - Var Var 2 kt METAR EDLV 170020Z AUTO VRB02KT 9999 // FEW096/// SCT110/// 22/17 Q1009
01:50
V
23 °C 10 km+ 12.000 ft 060° 060° 3 kt METAR EDLV 162350Z AUTO 06003KT 020V110 9999 // BKN120/// 23/17 Q1010
01:20
V
23 °C 10 km+ 11.000 ft 060° 060° 4 kt METAR EDLV 162320Z AUTO 06004KT 030V120 9999 // BKN110/// BKN140/// 23/17 Q1010
00:50
V
23 °C 10 km+ 12.000 ft 040° 040° 4 kt METAR EDLV 162250Z AUTO 04004KT 010V100 9999 // BKN120/// OVC140/// 23/17 Q1010
00:20
V
23 °C 10 km+ 11.000 ft 020° 020° 3 kt METAR EDLV 162220Z AUTO 02003KT 340V060 9999 // FEW070/// BKN110/// OVC140/// 23/17 Q1010

16 sierpnia 2022

Czas Kod Pogoda Temp. Widoczność Sufit Wiatr METAR/SPECI
23:50
V
23 °C 10 km+ 14.000 ft 050° 050° 4 kt METAR EDLV 162150Z AUTO 05004KT 350V100 9999 // SCT093/// SCT110/// OVC140/// 23/17 Q1010
23:20
V
23 °C 10 km+ - Var Var 1 kt METAR EDLV 162120Z VRB01KT CAVOK 23/16 Q1010
22:50
V
24 °C 10 km+ - Var Var 2 kt METAR EDLV 162050Z VRB02KT CAVOK 24/16 Q1010
22:20
V
24 °C 10 km+ - Var Var 1 kt METAR EDLV 162020Z VRB01KT CAVOK 24/16 Q1010
21:50
V
24 °C 10 km+ - Var 000° 0 kt METAR EDLV 161950Z 00000KT CAVOK 24/16 Q1009
21:20
V
25 °C 10 km+ - Var 000° 0 kt METAR EDLV 161920Z 00000KT CAVOK 25/16 Q1009
20:50
V
26 °C 10 km+ - Var Var 1 kt METAR EDLV 161850Z VRB01KT CAVOK 26/15 Q1009
20:20
V
27 °C 10 km+ - Var Var 1 kt METAR EDLV 161820Z VRB01KT CAVOK 27/15 Q1009
19:50
V
27 °C 10 km+ - Var Var 2 kt METAR EDLV 161750Z VRB02KT CAVOK 27/14 Q1008
19:20
V
28 °C 10 km+ - 310° 310° 3 kt METAR EDLV 161720Z 31003KT 270V360 CAVOK 28/14 Q1008
18:50
V
29 °C 10 km+ - 310° 310° 4 kt METAR EDLV 161650Z 31004KT 250V360 CAVOK 29/12 Q1008
18:20
V
29 °C 10 km+ - 260° 260° 5 kt METAR EDLV 161620Z 26005KT 210V330 CAVOK 29/12 Q1008
17:50
V
29 °C 10 km+ - 290° 290° 5 kt METAR EDLV 161550Z 29005KT 250V340 CAVOK 29/12 Q1008
17:20
V
29 °C 10 km+ - 300° 300° 7 kt METAR EDLV 161520Z 30007KT 240V340 CAVOK 29/11 Q1008
16:50
V
29 °C 10 km+ - 270° 270° 8 kt METAR EDLV 161450Z 27008KT 220V320 CAVOK 29/12 Q1008
16:20
V
30 °C 10 km+ - 280° 280° 6 kt METAR EDLV 161420Z 28006KT 200V350 CAVOK 30/13 Q1008
15:50
V
30 °C 10 km+ - 260° 260° 9 kt METAR EDLV 161350Z 26009KT 210V300 CAVOK 30/13 Q1008
15:20
V
30 °C 10 km+ - 230° 230° 7 kt METAR EDLV 161320Z 23007KT 180V270 CAVOK 30/13 Q1008
14:50
V
29 °C 10 km+ - 220° 220° 10 kt METAR EDLV 161250Z 22010KT 190V260 CAVOK 29/13 Q1008
14:20
V
29 °C 10 km+ - 240° 240° 9 kt METAR EDLV 161220Z 24009KT 210V270 CAVOK 29/13 Q1008
13:50
V
30 °C 10 km+ - 210° 210° 10 kt METAR EDLV 161150Z 21010KT 160V270 CAVOK 30/14 Q1008
13:20
V
28 °C 10 km+ - 240° 240° 9 kt METAR EDLV 161120Z 24009KT 210V270 CAVOK 28/15 Q1008
12:50
V
29 °C 10 km+ - 230° 230° 9 kt METAR EDLV 161050Z 23009KT 190V270 CAVOK 29/15 Q1008
12:20
V
27 °C 10 km+ - 250° 250° 10 kt METAR EDLV 161020Z 25010KT 210V300 9999 FEW041 27/16 Q1008
11:50
V
27 °C 10 km+ - 200° 200° 9 kt METAR EDLV 160950Z 20009KT 160V250 CAVOK 27/16 Q1008
11:20
V
26 °C 10 km+ - 220° 220° 9 kt METAR EDLV 160920Z 22009KT 170V250 CAVOK 26/17 Q1008
10:50
V
26 °C 10 km+ - 220° 220° 8 kt METAR EDLV 160850Z 22008KT 180V250 CAVOK 26/17 Q1008
10:20
V
25 °C 10 km+ - 210° 210° 8 kt METAR EDLV 160820Z 21008KT 180V240 CAVOK 25/16 Q1008
09:50
V
23 °C 10 km+ - 200° 200° 6 kt METAR EDLV 160750Z 20006KT 170V280 CAVOK 23/16 Q1007
09:20
V
22 °C 10 km+ - 200° 200° 5 kt METAR EDLV 160720Z 20005KT 160V250 CAVOK 22/17 Q1007
08:50
V
21 °C 10 km+ - 200° 200° 5 kt METAR EDLV 160650Z 20005KT 160V230 CAVOK 21/16 Q1007
08:20
V
20 °C 10 km+ - 180° 180° 3 kt METAR EDLV 160620Z 18003KT 140V230 CAVOK 20/16 Q1007
07:50
V
19 °C 10 km+ - 190° 190° 3 kt METAR EDLV 160550Z 19003KT 150V230 CAVOK 19/16 Q1007
07:20
V
18 °C 10 km+ - 210° 210° 4 kt METAR EDLV 160520Z 21004KT 180V260 CAVOK 18/15 Q1007
06:50
V
18 °C 10 km+ - 210° 210° 4 kt METAR EDLV 160450Z 21004KT CAVOK 18/15 Q1007
06:20
V
17 °C 10 km+ - 210° 210° 5 kt METAR EDLV 160420Z 21005KT CAVOK 17/15 Q1006
05:50
V
17 °C 10 km+ - Var Var 2 kt METAR EDLV 160350Z VRB02KT CAVOK 17/15 Q1006
05:20
V
18 °C 10 km+ - 210° 210° 4 kt METAR EDLV 160320Z 21004KT 170V240 CAVOK 18/15 Q1006
04:50
V
18 °C 10 km+ - 210° 210° 4 kt METAR EDLV 160250Z 21004KT CAVOK 18/15 Q1006
04:20
V
18 °C 10 km+ - 220° 220° 4 kt METAR EDLV 160220Z AUTO 22004KT 9999 // NCD 18/15 Q1006
03:50
V
18 °C 10 km+ - 200° 200° 3 kt METAR EDLV 160150Z AUTO 20003KT 9999 // FEW120/// 18/16 Q1006
03:20
V
19 °C 10 km+ 12.000 ft 160° 160° 4 kt METAR EDLV 160120Z AUTO 16004KT 9999 // BKN120/// BKN140/// 19/16 Q1006
02:50
V
19 °C 10 km+ 11.000 ft 140° 140° 4 kt METAR EDLV 160050Z AUTO 14004KT 9999 // BKN110/// 19/16 Q1006
02:20
V
19 °C 10 km+ 12.000 ft 170° 170° 4 kt METAR EDLV 160020Z AUTO 17004KT 9999 // BKN120/// 19/16 Q1006
01:50
V
19 °C 10 km+ 14.000 ft Var Var 2 kt METAR EDLV 152350Z AUTO VRB02KT 9999 // FEW110/// BKN140/// 19/16 Q1006
01:20
V
20 °C 10 km+ 11.000 ft Var Var 1 kt METAR EDLV 152320Z AUTO VRB01KT 9999 // BKN110/// OVC140/// 20/16 Q1006
00:50
V
20 °C 10 km+ 10.000 ft Var Var 2 kt METAR EDLV 152250Z AUTO VRB02KT 9999 // BKN100/// 20/16 Q1006
00:20
V
20 °C 10 km+ 11.000 ft 170° 170° 3 kt METAR EDLV 152220Z AUTO 17003KT 9999 // OVC110/// 20/16 Q1006

15 sierpnia 2022

Czas Kod Pogoda Temp. Widoczność Sufit Wiatr METAR/SPECI
23:50
V
21 °C 10 km+ - Var Var 1 kt METAR EDLV 152150Z VRB01KT CAVOK 21/16 Q1006
22:50
V
22 °C 10 km+ - 210° 210° 5 kt METAR EDLV 152050Z 21005KT CAVOK 22/16 Q1006
22:20
V
22 °C 10 km+ - 200° 200° 4 kt METAR EDLV 152020Z 20004KT CAVOK 22/16 Q1005
21:50
V
22 °C 10 km+ - 190° 190° 4 kt METAR EDLV 151950Z 19004KT CAVOK 22/17 Q1005
21:20
V
23 °C 10 km+ - 210° 210° 5 kt METAR EDLV 151920Z 21005KT CAVOK 23/16 Q1005
20:50
V
24 °C 10 km+ - 210° 210° 6 kt METAR EDLV 151850Z 21006KT CAVOK 24/16 Q1005
20:20
V
25 °C 10 km+ - 210° 210° 5 kt METAR EDLV 151820Z 21005KT 180V240 CAVOK 25/16 Q1005
19:50
V
25 °C 10 km+ - 200° 200° 3 kt METAR EDLV 151750Z 20003KT 160V240 CAVOK 25/16 Q1004
19:20
V
25 °C 10 km+ - 220° 220° 4 kt METAR EDLV 151720Z 22004KT 170V260 CAVOK 25/16 Q1004
18:50
V
26 °C 10 km+ - 210° 210° 7 kt METAR EDLV 151650Z 21007KT 180V240 9999 FEW039 26/16 Q1004
18:20
V
26 °C 10 km+ - 200° 200° 7 kt METAR EDLV 151620Z 20007KT 160V230 9999 FEW040 26/16 Q1004
17:50
V
27 °C 10 km+ - 250° 250° 6 kt METAR EDLV 151550Z 25006KT 220V290 CAVOK 27/17 Q1004
17:20
V
26 °C 10 km+ - 250° 250° 6 kt METAR EDLV 151520Z 25006KT 190V290 CAVOK 26/17 Q1004
16:50
V
26 °C 10 km+ - 230° 230° 5 kt METAR EDLV 151450Z 23005KT 180V270 CAVOK 26/17 Q1004
16:20
V
25 °C 10 km+ - 230° 230° 6 kt METAR EDLV 151420Z 23006KT 180V260 CAVOK 25/17 Q1004
15:50
V
25 °C 10 km+ - 210° 210° 8 kt METAR EDLV 151350Z 21008KT 190V250 CAVOK 25/17 Q1005
15:20
V
24 °C 10 km+ - 220° 220° 6 kt METAR EDLV 151320Z 22006KT 180V250 CAVOK 24/17 Q1005
14:50
V
24 °C 10 km+ - 210° 210° 6 kt METAR EDLV 151250Z 21006KT 180V260 CAVOK 24/17 Q1005
14:20
V
25 °C 10 km+ - 220° 220° 9 kt METAR EDLV 151220Z 22009KT 9999 FEW029 SCT037 25/18 Q1005
13:50
V
24 °C 10 km+ - 220° 220° 8 kt METAR EDLV 151150Z 22008KT 190V260 9999 FEW036 24/17 Q1004
13:20
V
24 °C 10 km+ - 210° 210° 8 kt METAR EDLV 151120Z 21008KT 180V250 CAVOK 24/17 Q1004
12:50
V
23 °C 10 km+ - 220° 220° 8 kt METAR EDLV 151050Z 22008KT 170V260 CAVOK 23/17 Q1004
12:20
V
24 °C 10 km+ - 220° 220° 8 kt METAR EDLV 151020Z 22008KT 180V250 CAVOK 24/17 Q1004
11:50
V
23 °C 10 km+ - 210° 210° 7 kt METAR EDLV 150950Z 21007KT 180V240 9999 FEW032 23/17 Q1004
11:20
V
23 °C 10 km+ - 210° 210° 6 kt METAR EDLV 150920Z 21006KT CAVOK 23/16 Q1004
10:50
V
23 °C 10 km+ - 240° 240° 7 kt METAR EDLV 150850Z 24007KT CAVOK 23/16 Q1004
10:20
V
23 °C 10 km+ - 220° 220° 7 kt METAR EDLV 150820Z 22007KT 190V250 CAVOK 23/15 Q1004
09:50
V
23 °C 10 km+ - 220° 220° 8 kt METAR EDLV 150750Z 22008KT CAVOK 23/15 Q1004
09:20
V
22 °C 10 km+ - 230° 230° 8 kt METAR EDLV 150720Z 23008KT CAVOK 22/15 Q1004
08:50
V
22 °C 10 km+ - 230° 230° 7 kt METAR EDLV 150650Z 23007KT 210V270 CAVOK 22/15 Q1003
08:20
V
21 °C 10 km+ - 220° 220° 9 kt METAR EDLV 150620Z 22009KT CAVOK 21/15 Q1004
07:50
V
21 °C 10 km+ - 230° 230° 8 kt METAR EDLV 150550Z 23008KT CAVOK 21/14 Q1003
07:20
V
20 °C 10 km+ - 220° 220° 7 kt METAR EDLV 150520Z 22007KT CAVOK 20/13 Q1003
Starsze dane

My i osoby trzecie śledzimy twoje zachowanie w internecie na naszej stronie za pomocą plików cookie. Jeśli kontynuujesz, zakładamy, że zgadzasz się z naszą polityką plików cookie. Dowiedz się więcej